Time;durP1;ratioP1;P1;durP2;ratioP2;P2;SDS_P1;SDS_P2;PMS_P1;PMS_P2;Temp;Humidity;BMP_temperature;BMP_pressure;BME280_temperature;BME280_humidity;BME280_pressure;Samples;Min_cycle;Max_cycle;Signal;HPM_P1;HPM_P2
2021/03/12 00:00:58;;;;;;;1.97;1.87;;;7.70;99.90;;;;;;4954009;29;20437;-81
2021/03/12 00:03:30;;;;;;;2.17;1.80;;;7.70;99.90;;;;;;4954455;29;20172;-81
2021/03/12 00:05:58;;;;;;;3.13;1.93;;;7.70;99.90;;;;;;4955315;29;20408;-81
2021/03/12 00:08:29;;;;;;;12.80;3.20;;;7.60;99.90;;;;;;4953457;29;20408;-82
2021/03/12 00:10:56;;;;;;;5.83;2.00;;;7.60;99.90;;;;;;4956248;29;20531;-81
2021/03/12 00:13:25;;;;;;;7.00;2.13;;;7.50;99.90;;;;;;4955813;29;20483;-79
2021/03/12 00:15:51;;;;;;;2.40;2.20;;;7.50;99.90;;;;;;4949774;29;20396;-81
2021/03/12 00:18:19;;;;;;;2.20;1.47;;;7.50;99.90;;;;;;4950867;29;20924;-80
2021/03/12 00:20:45;;;;;;;3.87;2.20;;;7.40;99.90;;;;;;4949562;29;20537;-79
2021/03/12 00:23:11;;;;;;;6.57;2.10;;;7.40;99.90;;;;;;4949201;29;20408;-81
2021/03/12 00:25:43;;;;;;;4.30;1.90;;;7.40;99.90;;;;;;4962503;29;20424;-80
2021/03/12 00:28:11;;;;;;;3.07;2.07;;;7.40;99.90;;;;;;4954721;29;20457;-81
2021/03/12 00:30:38;;;;;;;4.23;2.10;;;7.30;99.90;;;;;;4951532;29;20407;-81
2021/03/12 00:33:07;;;;;;;3.10;2.10;;;7.40;99.90;;;;;;4952266;29;20416;-81
2021/03/12 00:35:35;;;;;;;4.17;2.10;;;7.50;99.90;;;;;;4952262;29;20400;-80
2021/03/12 00:38:02;;;;;;;2.23;1.77;;;7.50;99.90;;;;;;4951539;29;20487;-80
2021/03/12 00:40:32;;;;;;;5.07;2.27;;;7.40;99.90;;;;;;4958412;29;20864;-79
2021/03/12 00:42:58;;;;;;;2.40;1.77;;;7.40;99.90;;;;;;4948848;29;20448;-81
2021/03/12 00:45:27;;;;;;;2.00;1.73;;;7.50;99.90;;;;;;4952146;29;20471;-82
2021/03/12 00:47:53;;;;;;;2.13;1.40;;;7.60;99.90;;;;;;4955733;29;20402;-81
2021/03/12 00:50:24;;;;;;;1.10;1.00;;;7.30;99.90;;;;;;4962294;29;20404;-80
2021/03/12 00:52:50;;;;;;;1.43;1.33;;;6.40;99.90;;;;;;4962406;29;20168;-81
2021/03/12 00:55:16;;;;;;;5.23;1.50;;;6.30;99.90;;;;;;4962198;29;20395;-80
2021/03/12 00:57:41;;;;;;;0.90;0.90;;;6.20;99.90;;;;;;4962357;29;20210;-81
2021/03/12 01:00:10;;;;;;;1.20;1.10;;;6.00;99.90;;;;;;4956383;29;20200;-80
2021/03/12 01:02:37;;;;;;;1.33;1.17;;;5.80;99.90;;;;;;4947884;29;20171;-79
2021/03/12 01:05:04;;;;;;;1.30;0.97;;;5.80;99.90;;;;;;4948550;29;20384;-81
2021/03/12 01:07:30;;;;;;;0.90;0.90;;;5.70;99.90;;;;;;4949408;29;20408;-81
2021/03/12 01:09:56;;;;;;;1.47;1.23;;;5.50;99.90;;;;;;4947845;29;20888;-81
2021/03/12 01:12:21;;;;;;;1.50;1.20;;;5.20;99.90;;;;;;4950495;29;20164;-81
2021/03/12 01:14:47;;;;;;;0.90;0.90;;;5.00;99.90;;;;;;4948656;29;20183;-80
2021/03/12 01:17:16;;;;;;;1.77;1.03;;;5.30;99.90;;;;;;4948313;29;20199;-80
2021/03/12 01:19:42;;;;;;;1.27;1.17;;;5.50;99.90;;;;;;4949958;29;20388;-80
2021/03/12 01:22:08;;;;;;;1.00;0.93;;;5.50;99.90;;;;;;4949151;29;20585;-81
2021/03/12 01:24:35;;;;;;;4.60;1.73;;;5.70;99.90;;;;;;4949122;29;20263;-82
2021/03/12 01:27:01;;;;;;;1.10;1.00;;;5.90;99.90;;;;;;4948380;29;20164;-80
2021/03/12 01:29:27;;;;;;;1.23;1.13;;;6.00;99.90;;;;;;4948281;29;20401;-80
2021/03/12 01:31:53;;;;;;;0.83;0.83;;;6.00;99.90;;;;;;4948981;29;20207;-79
2021/03/12 01:34:19;;;;;;;1.33;1.00;;;6.00;99.90;;;;;;4947422;29;20438;-81
2021/03/12 01:36:45;;;;;;;2.50;1.30;;;6.10;99.90;;;;;;4947566;29;20326;-81
2021/03/12 01:39:13;;;;;;;1.10;1.00;;;6.10;99.90;;;;;;4948091;29;20464;-81
2021/03/12 01:41:39;;;;;;;1.30;1.13;;;6.20;99.90;;;;;;4947742;29;20400;-81
2021/03/12 01:44:05;;;;;;;1.60;1.23;;;6.20;99.90;;;;;;4948658;29;20618;-80
2021/03/12 01:46:31;;;;;;;1.10;1.00;;;6.10;99.90;;;;;;4948624;29;20172;-82
2021/03/12 01:48:57;;;;;;;1.40;1.30;;;5.80;99.90;;;;;;4947276;29;20443;-80
2021/03/12 01:51:23;;;;;;;1.30;1.20;;;5.90;99.90;;;;;;4948425;29;20760;-81
2021/03/12 01:53:49;;;;;;;1.17;1.07;;;5.80;99.90;;;;;;4947812;29;20172;-80
2021/03/12 01:56:16;;;;;;;0.83;0.83;;;5.90;99.90;;;;;;4948217;29;20214;-80
2021/03/12 01:58:46;;;;;;;2.83;1.00;;;5.90;99.90;;;;;;4947614;29;20167;-81
2021/03/12 02:01:12;;;;;;;1.17;1.07;;;6.00;99.90;;;;;;4946328;29;20407;-81
2021/03/12 02:03:38;;;;;;;1.20;0.90;;;5.70;99.90;;;;;;4944281;29;20415;-79
2021/03/12 02:06:05;;;;;;;2.27;1.30;;;5.60;99.90;;;;;;4944432;29;20400;-81
2021/03/12 02:08:30;;;;;;;2.30;1.10;;;5.70;99.90;;;;;;4945938;29;20431;-81
2021/03/12 02:10:56;;;;;;;1.47;1.00;;;5.80;99.90;;;;;;4948321;29;20441;-81
2021/03/12 02:13:52;;;;;;;2.03;1.40;;;5.50;99.90;;;;;;4946155;29;20161;-81
2021/03/12 02:16:26;;;;;;;2.20;1.03;;;5.70;99.90;;;;;;4946937;29;20430;-81
2021/03/12 02:19:32;;;;;;;3.00;1.10;;;5.80;99.90;;;;;;4947540;29;20448;-81
2021/03/12 02:21:59;;;;;;;1.20;1.10;;;5.70;99.90;;;;;;4949921;29;20882;-81
2021/03/12 02:24:35;;;;;;;3.20;1.57;;;5.80;99.90;;;;;;4948108;29;20385;-81
2021/03/12 02:27:05;;;;;;;1.87;1.20;;;5.80;99.90;;;;;;4947287;29;20467;-80
2021/03/12 02:29:32;;;;;;;0.87;0.87;;;5.80;99.90;;;;;;4947785;29;20415;-80
2021/03/12 02:32:01;;;;;;;1.33;1.23;;;5.90;99.90;;;;;;4948407;29;20444;-81
2021/03/12 02:34:32;;;;;;;1.30;1.10;;;5.80;99.90;;;;;;4947985;29;20400;-81
2021/03/12 02:37:01;;;;;;;1.13;1.00;;;5.80;99.90;;;;;;4948831;29;20462;-81
2021/03/12 02:39:29;;;;;;;1.20;1.10;;;5.90;99.90;;;;;;4946579;29;20415;-81
2021/03/12 02:41:57;;;;;;;1.13;1.03;;;5.90;99.90;;;;;;4948673;29;20463;-81
2021/03/12 02:44:25;;;;;;;1.17;1.07;;;5.70;99.90;;;;;;4949767;29;20817;-81
2021/03/12 02:46:57;;;;;;;2.13;1.40;;;5.80;99.90;;;;;;4958630;29;20408;-80
2021/03/12 02:49:25;;;;;;;10.30;1.20;;;5.60;99.90;;;;;;4959372;29;20355;-81
2021/03/12 02:51:51;;;;;;;1.10;0.97;;;5.70;99.90;;;;;;4942080;29;20435;-80
2021/03/12 02:54:18;;;;;;;4.90;1.43;;;5.80;99.90;;;;;;4950815;29;20411;-80
2021/03/12 02:56:44;;;;;;;1.27;1.17;;;5.80;99.90;;;;;;4949878;29;20478;-81
2021/03/12 02:59:12;;;;;;;2.23;1.50;;;5.90;99.90;;;;;;4947919;29;20841;-81
2021/03/12 03:01:39;;;;;;;1.57;1.37;;;6.00;99.90;;;;;;4948356;29;20400;-81
2021/03/12 03:04:06;;;;;;;5.70;1.70;;;5.90;99.90;;;;;;4948399;29;20379;-81
2021/03/12 03:06:32;;;;;;;4.73;1.20;;;5.90;99.90;;;;;;4949107;29;20777;-81
2021/03/12 03:08:59;;;;;;;2.80;1.40;;;6.00;99.90;;;;;;4948664;29;20466;-81
2021/03/12 03:11:26;;;;;;;3.87;1.53;;;6.00;99.90;;;;;;4947721;29;20775;-81
2021/03/12 03:13:53;;;;;;;2.37;1.40;;;5.90;99.90;;;;;;4947641;29;20904;-81
2021/03/12 03:16:24;;;;;;;1.27;1.17;;;6.00;99.90;;;;;;4955891;29;20433;-81
2021/03/12 03:18:52;;;;;;;1.30;1.20;;;5.90;99.90;;;;;;4956998;29;20452;-81
2021/03/12 03:21:19;;;;;;;3.00;1.13;;;5.90;99.90;;;;;;4951669;29;20428;-81
2021/03/12 03:23:46;;;;;;;1.53;1.40;;;5.80;99.90;;;;;;4950563;29;20410;-81
2021/03/12 03:26:12;;;;;;;3.33;1.10;;;5.80;99.90;;;;;;4934390;29;20423;-81
2021/03/12 03:28:38;;;;;;;3.10;1.23;;;5.90;99.90;;;;;;4951874;29;20406;-81
2021/03/12 03:31:07;;;;;;;3.53;1.20;;;5.90;99.90;;;;;;4953978;29;20403;-80
2021/03/12 03:33:34;;;;;;;1.50;1.40;;;5.90;99.90;;;;;;4959825;29;20404;-81
2021/03/12 03:36:00;;;;;;;1.97;1.50;;;5.90;99.90;;;;;;4959614;29;20196;-81
2021/03/12 03:38:26;;;;;;;1.10;1.00;;;5.90;99.90;;;;;;4957985;29;20455;-80
2021/03/12 03:40:52;;;;;;;2.77;2.57;;;5.90;99.90;;;;;;4946739;29;20412;-81
2021/03/12 03:43:27;;;;;;;4.10;1.20;;;5.90;99.90;;;;;;4944923;29;20411;-81
2021/03/12 03:45:56;;;;;;;2.97;1.67;;;5.90;99.90;;;;;;4948886;29;20399;-81
2021/03/12 03:48:24;;;;;;;1.53;1.43;;;5.80;99.90;;;;;;4947610;29;20396;-79
2021/03/12 03:50:51;;;;;;;2.23;1.33;;;5.90;99.90;;;;;;4950776;29;20801;-81
2021/03/12 03:53:17;;;;;;;2.27;1.30;;;5.90;99.90;;;;;;4950009;29;20411;-80
2021/03/12 03:55:43;;;;;;;4.03;1.30;;;5.90;99.90;;;;;;4951168;29;20403;-80
2021/03/12 03:58:10;;;;;;;1.83;1.20;;;5.80;99.90;;;;;;4949890;29;20475;-81
2021/03/12 04:00:37;;;;;;;2.50;1.20;;;5.90;99.90;;;;;;4951176;29;20168;-81
2021/03/12 04:03:04;;;;;;;1.20;1.10;;;5.80;99.90;;;;;;4950612;29;20419;-81
2021/03/12 04:05:31;;;;;;;5.50;1.60;;;5.80;99.90;;;;;;4950841;29;20494;-80
2021/03/12 04:07:58;;;;;;;5.40;1.50;;;5.90;99.90;;;;;;4950569;29;20385;-80
2021/03/12 04:10:24;;;;;;;1.10;1.00;;;5.90;99.90;;;;;;4949128;29;20411;-81
2021/03/12 04:12:51;;;;;;;1.33;1.20;;;5.90;99.90;;;;;;4951589;29;20400;-80
2021/03/12 04:15:17;;;;;;;1.63;1.50;;;6.00;99.90;;;;;;4951254;29;20375;-80
2021/03/12 04:17:43;;;;;;;3.10;1.37;;;6.00;99.90;;;;;;4950707;29;20422;-79
2021/03/12 04:20:10;;;;;;;1.40;1.30;;;6.00;99.90;;;;;;4952646;29;20400;-79
2021/03/12 04:22:37;;;;;;;4.50;1.40;;;6.00;99.90;;;;;;4948830;29;20406;-81
2021/03/12 04:25:05;;;;;;;2.97;1.17;;;6.20;99.90;;;;;;4950392;29;20397;-81
2021/03/12 04:27:32;;;;;;;2.50;1.77;;;6.20;99.90;;;;;;4951174;29;20408;-81
2021/03/12 04:29:58;;;;;;;2.80;1.20;;;6.20;99.90;;;;;;4951860;29;20411;-81
2021/03/12 04:32:24;;;;;;;1.70;1.60;;;6.20;99.90;;;;;;4948522;29;20420;-81
2021/03/12 04:34:50;;;;;;;3.03;1.20;;;6.20;99.90;;;;;;4950306;29;20424;-81
2021/03/12 04:37:17;;;;;;;1.57;1.47;;;6.20;99.90;;;;;;4951731;29;20503;-82
2021/03/12 04:39:43;;;;;;;1.03;1.00;;;6.20;99.90;;;;;;4949222;29;20514;-80
2021/03/12 04:42:12;;;;;;;1.67;1.57;;;6.20;99.90;;;;;;4949807;29;20400;-81
2021/03/12 04:44:38;;;;;;;6.13;1.70;;;6.20;99.90;;;;;;4950158;29;20400;-81
2021/03/12 04:47:05;;;;;;;1.20;1.10;;;6.20;99.90;;;;;;4963549;28;20431;-81
2021/03/12 04:49:31;;;;;;;1.47;1.37;;;6.20;99.90;;;;;;4972269;28;20509;-80
2021/03/12 04:51:59;;;;;;;3.83;1.60;;;6.10;99.90;;;;;;4967377;29;20370;-81
2021/03/12 04:54:28;;;;;;;4.70;1.30;;;6.20;99.90;;;;;;4968645;28;20403;-81
2021/03/12 04:56:54;;;;;;;2.07;1.30;;;6.20;99.90;;;;;;4966666;29;20547;-81
2021/03/12 04:59:21;;;;;;;3.47;1.20;;;6.20;99.90;;;;;;4968467;28;20370;-81
2021/03/12 05:01:48;;;;;;;2.60;1.30;;;6.20;99.90;;;;;;4968737;28;20427;-81
2021/03/12 05:04:14;;;;;;;2.20;1.60;;;6.20;99.90;;;;;;4969426;28;20538;-81
2021/03/12 05:06:43;;;;;;;1.50;1.40;;;6.20;99.90;;;;;;4965600;28;20408;-81
2021/03/12 05:09:13;;;;;;;1.63;1.53;;;6.20;99.90;;;;;;4968771;28;20750;-80
2021/03/12 05:11:43;;;;;;;4.03;1.50;;;6.10;99.90;;;;;;4968015;28;20504;-81
2021/03/12 05:14:11;;;;;;;1.23;1.13;;;6.20;99.90;;;;;;4968543;28;20414;-81
2021/03/12 05:16:37;;;;;;;2.90;1.23;;;6.10;99.90;;;;;;4968696;28;20514;-81
2021/03/12 05:19:03;;;;;;;1.80;1.07;;;6.10;99.90;;;;;;4968165;28;20406;-81
2021/03/12 05:21:29;;;;;;;5.00;1.67;;;6.00;99.90;;;;;;4966377;28;20218;-80
2021/03/12 05:23:55;;;;;;;2.33;1.50;;;6.10;99.90;;;;;;4965883;28;20366;-81
2021/03/12 05:26:21;;;;;;;4.47;2.10;;;6.10;99.90;;;;;;4967081;28;20390;-81
2021/03/12 05:28:47;;;;;;;1.40;1.30;;;6.20;99.90;;;;;;4967913;28;20251;-80
2021/03/12 05:31:12;;;;;;;1.40;1.10;;;6.20;99.90;;;;;;4967464;28;20167;-81
2021/03/12 05:33:38;;;;;;;3.57;1.20;;;6.20;99.90;;;;;;4967372;28;20168;-82
2021/03/12 05:36:04;;;;;;;13.30;1.60;;;6.30;99.90;;;;;;4965590;29;20218;-80
2021/03/12 05:38:30;;;;;;;1.70;1.23;;;6.20;99.90;;;;;;4967576;28;20235;-81
2021/03/12 05:40:56;;;;;;;1.30;1.17;;;6.30;99.90;;;;;;4967812;28;20407;-81
2021/03/12 05:43:23;;;;;;;1.73;1.40;;;6.30;99.90;;;;;;4965785;29;20164;-81
2021/03/12 05:45:51;;;;;;;3.17;1.73;;;6.20;99.90;;;;;;4966171;29;20391;-81
2021/03/12 05:48:18;;;;;;;3.70;1.80;;;6.20;99.90;;;;;;4967870;28;20403;-80
2021/03/12 05:50:44;;;;;;;2.30;1.57;;;6.30;99.90;;;;;;4967986;28;20378;-81
2021/03/12 05:53:10;;;;;;;1.30;1.20;;;6.30;99.90;;;;;;4967473;28;20418;-81
2021/03/12 05:55:36;;;;;;;1.43;1.30;;;6.30;99.90;;;;;;4967897;28;20168;-81
2021/03/12 05:58:02;;;;;;;1.90;1.37;;;6.30;99.90;;;;;;4967949;28;20211;-80
2021/03/12 06:00:28;;;;;;;4.30;1.70;;;6.30;99.90;;;;;;4968510;28;20399;-79
2021/03/12 06:02:54;;;;;;;2.83;1.87;;;6.40;99.90;;;;;;4962252;28;20192;-80
2021/03/12 06:05:19;;;;;;;1.17;1.10;;;6.30;99.90;;;;;;4968572;28;20398;-80
2021/03/12 06:07:48;;;;;;;2.23;1.70;;;6.20;99.90;;;;;;4971161;28;20174;-80
2021/03/12 06:10:14;;;;;;;4.30;1.53;;;6.20;99.90;;;;;;4977098;28;20183;-81
2021/03/12 06:12:40;;;;;;;1.70;1.60;;;6.30;99.90;;;;;;4967293;29;20395;-81
2021/03/12 06:15:06;;;;;;;3.37;1.50;;;6.30;99.90;;;;;;4965892;28;20167;-80
2021/03/12 06:17:35;;;;;;;3.87;1.20;;;6.20;99.90;;;;;;4967928;28;20566;-81
2021/03/12 06:20:05;;;;;;;1.37;1.10;;;6.10;99.90;;;;;;4967172;28;20407;-80
2021/03/12 06:22:31;;;;;;;2.40;1.37;;;6.30;99.90;;;;;;4967501;28;20395;-80
2021/03/12 06:25:17;;;;;;;1.60;1.30;;;6.40;99.90;;;;;;4966458;28;20423;-80
2021/03/12 06:27:44;;;;;;;4.63;1.43;;;6.40;99.90;;;;;;4967000;28;20403;-80
2021/03/12 06:30:11;;;;;;;3.00;1.70;;;6.30;99.90;;;;;;4969440;29;20402;-80
2021/03/12 06:32:44;;;;;;;1.63;1.30;;;6.30;99.90;;;;;;4960100;29;20459;-79
2021/03/12 06:35:14;;;;;;;2.57;1.73;;;6.40;99.90;;;;;;4945800;28;20434;-80
2021/03/12 06:37:41;;;;;;;3.00;1.60;;;6.40;99.90;;;;;;4947474;29;20450;-81
2021/03/12 06:40:27;;;;;;;3.13;1.40;;;6.40;99.90;;;;;;4946901;29;20393;-81
2021/03/12 06:43:10;;;;;;;3.90;1.90;;;6.50;99.90;;;;;;4948733;29;20378;-81
2021/03/12 06:45:53;;;;;;;3.77;1.63;;;6.40;99.90;;;;;;4947828;29;20490;-81
2021/03/12 06:48:25;;;;;;;1.63;1.47;;;6.50;99.90;;;;;;4958301;29;20385;-81
2021/03/12 06:50:56;;;;;;;2.03;1.67;;;6.40;99.90;;;;;;4966244;28;20429;-81
2021/03/12 06:53:28;;;;;;;1.87;1.67;;;6.40;99.90;;;;;;4947159;29;20521;-81
2021/03/12 06:55:56;;;;;;;1.57;1.47;;;6.20;99.90;;;;;;4952853;28;20951;-81
2021/03/12 06:58:22;;;;;;;2.93;2.53;;;6.40;99.90;;;;;;4966392;28;20467;-80
2021/03/12 07:00:48;;;;;;;7.83;1.80;;;6.50;99.90;;;;;;4969742;28;20387;-81
2021/03/12 07:03:20;;;;;;;2.40;1.43;;;6.50;99.90;;;;;;4966234;28;20412;-80
2021/03/12 07:06:07;;;;;;;3.50;3.20;;;6.40;99.90;;;;;;4960696;28;20447;-81
2021/03/12 07:08:35;;;;;;;3.53;1.67;;;6.40;99.90;;;;;;4960062;28;21038;-81
2021/03/12 07:11:15;;;;;;;8.93;2.27;;;6.40;99.90;;;;;;4961176;28;20430;-81
2021/03/12 07:13:42;;;;;;;3.73;1.80;;;6.60;99.90;;;;;;4960567;28;20485;-80
2021/03/12 07:16:07;;;;;;;4.63;2.60;;;6.50;99.90;;;;;;4964187;28;20389;-80
2021/03/12 07:18:55;;;;;;;4.00;1.80;;;6.60;99.90;;;;;;4944280;29;20422;-81
2021/03/12 07:21:23;;;;;;;2.23;2.03;;;6.60;99.90;;;;;;4941325;29;20550;-81
2021/03/12 07:23:52;;;;;;;2.60;1.73;;;6.50;99.90;;;;;;4946727;29;20432;-81
2021/03/12 07:26:19;;;;;;;1.90;1.40;;;6.70;99.90;;;;;;4948406;29;20394;-81
2021/03/12 07:28:46;;;;;;;2.27;1.80;;;6.70;99.90;;;;;;4946416;29;20882;-81
2021/03/12 07:31:15;;;;;;;3.70;1.90;;;6.80;99.90;;;;;;4947780;29;20529;-82
2021/03/12 07:33:49;;;;;;;1.40;1.10;;;6.70;99.90;;;;;;4927296;29;20436;-81
2021/03/12 07:36:22;;;;;;;1.30;1.20;;;6.70;99.90;;;;;;4938697;29;20435;-81
2021/03/12 07:38:51;;;;;;;1.87;1.40;;;6.80;99.90;;;;;;4929412;29;20899;-81
2021/03/12 07:41:17;;;;;;;2.10;1.70;;;6.90;99.90;;;;;;4910233;29;20963;-81
2021/03/12 07:43:44;;;;;;;4.63;1.50;;;6.80;99.90;;;;;;4924490;29;20460;-82
2021/03/12 07:46:13;;;;;;;9.23;1.87;;;7.00;99.90;;;;;;4918023;29;20435;-81
2021/03/12 07:48:39;;;;;;;4.33;2.23;;;6.90;99.90;;;;;;4917635;29;21002;-81
2021/03/12 07:51:09;;;;;;;2.13;1.73;;;6.90;99.90;;;;;;4915217;29;20435;-82
2021/03/12 07:53:51;;;;;;;2.00;1.80;;;7.00;99.90;;;;;;4917590;29;20184;-81
2021/03/12 07:56:54;;;;;;;1.93;1.80;;;7.00;99.90;;;;;;4901256;29;20407;-82
2021/03/12 07:59:20;;;;;;;3.17;1.40;;;7.00;99.90;;;;;;4937913;29;20514;-81
2021/03/12 08:01:50;;;;;;;4.80;1.83;;;7.10;99.90;;;;;;4938791;29;20523;-79
2021/03/12 08:04:32;;;;;;;1.63;1.53;;;7.10;99.90;;;;;;4934108;29;20195;-82
2021/03/12 08:07:18;;;;;;;2.07;1.97;;;7.20;99.90;;;;;;4935005;29;20446;-81
2021/03/12 08:09:47;;;;;;;3.63;1.70;;;7.30;99.90;;;;;;4937618;29;20824;-81
2021/03/12 08:12:31;;;;;;;1.93;1.70;;;7.40;99.90;;;;;;4936740;29;20463;-81
2021/03/12 08:15:18;;;;;;;3.20;1.70;;;7.40;99.90;;;;;;4936487;29;20573;-81
2021/03/12 08:17:47;;;;;;;1.37;1.27;;;7.50;99.90;;;;;;4934001;29;20518;-82
2021/03/12 08:20:29;;;;;;;2.03;1.60;;;7.30;99.90;;;;;;4938087;29;21006;-81
2021/03/12 08:22:57;;;;;;;1.87;1.50;;;7.10;99.90;;;;;;4934329;29;20435;-81
2021/03/12 08:25:44;;;;;;;7.13;1.70;;;7.30;99.90;;;;;;4937357;29;20783;-81
2021/03/12 08:28:30;;;;;;;2.03;1.70;;;7.30;99.90;;;;;;4912047;29;20430;-81
2021/03/12 08:30:58;;;;;;;4.50;2.00;;;7.30;99.90;;;;;;4917137;29;20441;-82
2021/03/12 08:33:29;;;;;;;3.47;1.73;;;7.40;99.90;;;;;;4915731;29;20529;-80
2021/03/12 08:35:56;;;;;;;2.73;1.20;;;7.50;99.90;;;;;;4913495;29;20448;-80
2021/03/12 08:38:40;;;;;;;1.17;1.07;;;7.30;99.90;;;;;;4944991;29;20638;-80
2021/03/12 08:41:16;;;;;;;4.80;1.60;;;7.40;99.90;;;;;;4957888;29;20466;-80
2021/03/12 08:43:46;;;;;;;2.57;2.13;;;7.40;99.90;;;;;;4935668;29;20505;-80
2021/03/12 08:46:16;;;;;;;4.13;2.00;;;7.60;99.90;;;;;;4962578;28;20434;-81
2021/03/12 08:48:44;;;;;;;5.07;2.40;;;7.40;99.90;;;;;;4950606;28;20545;-80
2021/03/12 08:51:17;;;;;;;4.53;2.77;;;7.50;99.90;;;;;;4959929;28;20783;-80
2021/03/12 08:53:54;;;;;;;7.30;2.50;;;7.50;99.90;;;;;;4961747;28;20807;-80
2021/03/12 08:56:23;;;;;;;4.23;2.33;;;7.80;99.90;;;;;;4972297;28;20433;-79
2021/03/12 08:58:49;;;;;;;4.43;1.30;;;7.80;99.90;;;;;;4971448;28;20468;-78
2021/03/12 09:01:18;;;;;;;9.13;1.40;;;7.80;99.90;;;;;;4976967;28;20427;-82
2021/03/12 09:03:48;;;;;;;5.80;2.30;;;7.80;99.90;;;;;;4960518;28;20494;-81
2021/03/12 09:06:18;;;;;;;3.60;2.00;;;7.40;99.90;;;;;;4964722;29;20935;-82
2021/03/12 09:08:45;;;;;;;3.23;1.40;;;7.70;99.90;;;;;;4962251;29;20506;-81
2021/03/12 09:11:17;;;;;;;2.97;1.67;;;7.40;99.90;;;;;;4973571;28;20920;-81
2021/03/12 09:13:44;;;;;;;3.20;1.63;;;7.60;99.90;;;;;;4973766;28;20449;-81
2021/03/12 09:16:16;;;;;;;1.60;1.50;;;7.30;99.90;;;;;;4972985;28;20405;-80
2021/03/12 09:18:42;;;;;;;3.33;2.20;;;7.40;99.90;;;;;;4969961;28;20406;-80
2021/03/12 09:21:10;;;;;;;6.57;2.00;;;7.80;99.90;;;;;;4967236;29;20421;-81
2021/03/12 09:23:45;;;;;;;6.00;1.90;;;7.60;99.90;;;;;;4958536;28;20430;-81
2021/03/12 09:26:14;;;;;;;2.70;1.70;;;7.70;99.90;;;;;;4958027;28;20430;-81
2021/03/12 09:28:42;;;;;;;7.10;2.43;;;8.00;99.90;;;;;;4962004;28;20434;-80
2021/03/12 09:31:09;;;;;;;4.60;1.70;;;7.90;99.90;;;;;;4959496;28;20431;-81
2021/03/12 09:33:40;;;;;;;3.67;2.27;;;8.20;99.90;;;;;;4961175;28;20418;-82
2021/03/12 09:36:35;;;;;;;2.30;1.10;;;8.50;99.90;;;;;;4951550;28;20452;-81
2021/03/12 09:39:16;;;;;;;5.03;1.37;;;8.60;99.90;;;;;;4963557;28;20458;-81
2021/03/12 09:41:45;;;;;;;3.30;1.57;;;8.60;99.90;;;;;;4967305;28;20434;-81
2021/03/12 09:44:13;;;;;;;6.37;1.20;;;8.80;99.90;;;;;;4961655;28;20423;-79
2021/03/12 09:46:44;;;;;;;2.90;1.70;;;8.10;99.90;;;;;;4959856;28;20502;-82
2021/03/12 09:49:14;;;;;;;4.30;1.77;;;8.50;99.90;;;;;;4962904;28;20439;-81
2021/03/12 09:51:43;;;;;;;3.00;1.33;;;8.30;99.90;;;;;;4958916;28;20915;-81
2021/03/12 09:54:11;;;;;;;1.67;1.43;;;8.70;99.90;;;;;;4962390;28;20484;-81
2021/03/12 09:56:41;;;;;;;2.50;2.30;;;9.00;99.90;;;;;;4957587;29;20518;-81
2021/03/12 09:59:07;;;;;;;3.27;1.40;;;9.10;99.90;;;;;;4956542;28;20966;-81
2021/03/12 10:01:42;;;;;;;4.87;1.43;;;9.30;99.90;;;;;;4954932;28;20506;-81
2021/03/12 10:04:29;;;;;;;3.17;1.57;;;9.20;99.90;;;;;;4962317;28;20524;-80
2021/03/12 10:07:05;;;;;;;2.33;1.60;;;8.90;99.90;;;;;;4958194;28;20472;-80
2021/03/12 10:09:32;;;;;;;1.73;1.50;;;8.70;99.90;;;;;;4955692;28;20451;-82
2021/03/12 10:12:00;;;;;;;2.77;2.27;;;9.00;99.90;;;;;;4954706;28;20452;-79
2021/03/12 10:14:38;;;;;;;2.63;1.50;;;8.80;99.90;;;;;;4953323;28;20438;-82
2021/03/12 10:17:16;;;;;;;5.33;1.30;;;8.70;99.90;;;;;;4954206;28;20490;-80
2021/03/12 10:19:54;;;;;;;1.53;1.43;;;8.70;99.90;;;;;;4957611;28;20459;-79
2021/03/12 10:22:32;;;;;;;6.40;1.43;;;8.90;99.90;;;;;;4941099;29;20521;-81
2021/03/12 10:25:11;;;;;;;1.97;1.47;;;8.90;99.90;;;;;;4958122;28;20789;-80
2021/03/12 10:27:41;;;;;;;2.30;1.47;;;8.90;99.90;;;;;;4954372;28;20447;-80
2021/03/12 10:30:20;;;;;;;3.80;1.47;;;8.90;99.90;;;;;;4957788;28;20622;-81
2021/03/12 10:32:58;;;;;;;3.33;1.17;;;8.40;99.90;;;;;;4954868;28;20442;-80
2021/03/12 10:35:32;;;;;;;1.47;1.23;;;8.90;99.90;;;;;;4958963;28;20486;-81
2021/03/12 10:38:13;;;;;;;4.50;2.20;;;9.00;99.90;;;;;;4949462;29;20494;-81
2021/03/12 10:40:41;;;;;;;1.70;1.60;;;9.30;99.90;;;;;;4950446;28;20442;-81
2021/03/12 10:43:27;;;;;;;5.90;1.73;;;9.90;99.90;;;;;;4934336;28;20491;-81
2021/03/12 10:45:57;;;;;;;11.03;1.97;;;10.00;99.90;;;;;;4950457;29;20434;-81
2021/03/12 10:48:26;;;;;;;1.77;1.67;;;9.90;99.90;;;;;;4957040;29;20529;-82
2021/03/12 10:50:56;;;;;;;2.20;1.30;;;9.90;99.90;;;;;;4920557;28;20878;-82
2021/03/12 10:53:23;;;;;;;1.50;1.40;;;9.80;99.90;;;;;;4949303;29;20434;-81
2021/03/12 10:55:52;;;;;;;2.40;1.43;;;9.70;99.90;;;;;;4958718;28;20547;-82
2021/03/12 10:58:32;;;;;;;4.27;1.80;;;9.50;99.90;;;;;;4955266;28;21001;-82
2021/03/12 11:01:22;;;;;;;2.00;1.60;;;9.60;99.90;;;;;;4955845;28;20442;-80
2021/03/12 11:03:49;;;;;;;3.30;1.83;;;9.50;99.90;;;;;;4953513;28;20416;-80
2021/03/12 11:06:19;;;;;;;1.97;1.20;;;9.80;99.90;;;;;;4957941;28;20413;-81
2021/03/12 11:08:49;;;;;;;4.30;1.70;;;10.00;99.90;;;;;;4932829;28;20446;-81
2021/03/12 11:11:22;;;;;;;1.30;1.20;;;9.90;99.90;;;;;;4944201;28;20417;-79
2021/03/12 11:13:50;;;;;;;1.70;1.60;;;9.50;99.90;;;;;;4898959;29;20429;-78
2021/03/12 11:16:16;;;;;;;3.10;1.43;;;9.60;99.90;;;;;;4940938;29;20493;-80
2021/03/12 11:18:42;;;;;;;1.50;1.40;;;9.40;99.90;;;;;;4950828;28;20914;-79
2021/03/12 11:21:11;;;;;;;1.33;1.07;;;9.40;99.90;;;;;;4946410;28;20867;-79
2021/03/12 11:23:38;;;;;;;3.07;1.87;;;9.30;99.90;;;;;;4955133;28;20478;-79
2021/03/12 11:26:04;;;;;;;3.53;1.50;;;9.10;99.90;;;;;;4952169;28;20406;-78
2021/03/12 11:28:30;;;;;;;5.93;2.13;;;9.30;99.90;;;;;;4957977;28;20454;-79
2021/03/12 11:30:58;;;;;;;1.20;1.10;;;9.40;99.90;;;;;;4951915;29;20435;-77
2021/03/12 11:33:24;;;;;;;1.37;1.27;;;9.50;99.90;;;;;;4952120;29;20438;-78
2021/03/12 11:35:51;;;;;;;8.27;1.60;;;9.40;99.90;;;;;;4957442;28;20444;-79
2021/03/12 11:38:16;;;;;;;2.83;1.33;;;9.50;99.90;;;;;;4963348;28;20490;-78
2021/03/12 11:40:42;;;;;;;2.43;1.80;;;10.10;99.90;;;;;;4960405;28;20413;-78
2021/03/12 11:43:09;;;;;;;1.80;1.40;;;10.10;99.90;;;;;;4960802;28;20223;-78
2021/03/12 11:45:36;;;;;;;3.23;1.47;;;10.60;99.90;;;;;;4953224;28;20422;-79
2021/03/12 11:48:05;;;;;;;1.50;1.33;;;10.40;99.90;;;;;;4953938;29;20481;-80
2021/03/12 11:50:33;;;;;;;2.63;1.50;;;10.30;99.90;;;;;;4920940;29;20437;-81
2021/03/12 11:52:59;;;;;;;2.00;1.30;;;10.60;99.90;;;;;;4951509;29;20470;-78
2021/03/12 11:55:33;;;;;;;6.53;1.83;;;10.60;99.90;;;;;;4951794;28;20814;-79
2021/03/12 11:57:59;;;;;;;3.70;2.00;;;10.60;99.90;;;;;;4931014;29;20262;-81
2021/03/12 12:00:29;;;;;;;1.30;1.20;;;10.70;99.90;;;;;;4946131;29;20450;-80
2021/03/12 12:02:55;;;;;;;2.17;1.50;;;10.50;99.90;;;;;;4955970;28;20439;-80
2021/03/12 12:05:21;;;;;;;2.10;1.40;;;10.50;99.90;;;;;;4954166;28;20498;-81
2021/03/12 12:07:47;;;;;;;2.27;1.60;;;10.20;99.90;;;;;;4962195;28;20196;-83
2021/03/12 12:10:14;;;;;;;4.60;1.60;;;10.00;99.90;;;;;;4952041;28;20442;-79
2021/03/12 12:12:45;;;;;;;2.73;1.70;;;9.90;99.90;;;;;;4959206;28;20603;-81
2021/03/12 12:15:15;;;;;;;1.97;1.20;;;10.00;99.90;;;;;;4961660;28;20521;-80
2021/03/12 12:17:46;;;;;;;2.60;1.37;;;10.10;99.90;;;;;;4964999;28;20490;-79
2021/03/12 12:20:15;;;;;;;1.70;1.60;;;9.90;99.90;;;;;;4963337;28;20422;-81
2021/03/12 12:22:42;;;;;;;3.67;1.77;;;9.80;99.90;;;;;;4958688;28;20449;-81
2021/03/12 12:25:09;;;;;;;2.70;1.63;;;10.40;99.90;;;;;;4959053;28;20469;-80
2021/03/12 12:27:35;;;;;;;2.27;1.50;;;11.00;99.90;;;;;;4963154;28;20441;-81
2021/03/12 12:30:03;;;;;;;1.50;1.40;;;11.00;99.90;;;;;;4967773;28;20932;-81
2021/03/12 12:32:29;;;;;;;3.07;1.37;;;11.40;99.90;;;;;;4963348;28;20446;-81
2021/03/12 12:34:55;;;;;;;2.30;1.50;;;12.20;99.90;;;;;;4960416;28;20434;-81
2021/03/12 12:37:20;;;;;;;2.90;1.37;;;12.70;99.90;;;;;;4958031;28;20290;-80
2021/03/12 12:39:46;;;;;;;4.47;1.43;;;12.90;99.90;;;;;;4962309;29;20187;-81
2021/03/12 12:42:16;;;;;;;4.33;1.80;;;12.70;99.90;;;;;;4960343;28;20187;-80
2021/03/12 12:44:41;;;;;;;2.23;1.53;;;12.30;99.90;;;;;;4946192;29;20443;-80
2021/03/12 12:47:07;;;;;;;7.03;1.87;;;11.70;99.90;;;;;;4944708;29;20460;-80
2021/03/12 12:49:33;;;;;;;2.40;1.10;;;11.40;99.90;;;;;;4943894;29;20212;-81
2021/03/12 12:51:59;;;;;;;2.30;1.90;;;10.80;99.90;;;;;;4940815;29;20195;-80
2021/03/12 12:54:25;;;;;;;5.33;1.53;;;10.50;99.90;;;;;;4939460;29;20197;-81
2021/03/12 12:56:51;;;;;;;3.63;1.47;;;10.70;99.90;;;;;;4935827;29;20577;-80
2021/03/12 12:59:16;;;;;;;4.50;1.70;;;11.40;99.90;;;;;;4939661;29;20187;-81
2021/03/12 13:01:42;;;;;;;4.00;1.70;;;11.30;99.90;;;;;;4936948;29;20223;-81
2021/03/12 13:04:08;;;;;;;7.90;1.70;;;10.80;99.90;;;;;;4918494;29;20188;-78
2021/03/12 13:06:35;;;;;;;2.47;1.40;;;10.90;99.90;;;;;;4936021;29;20432;-80